This is the latest recevied weather packets stored in our database for station/object DG2GGP-11. If no packets are shown the sender has not sent any weather packets the latest 10 day(s).
| Time | Temp. | Humidity | Pressure | Rain* | Wind** | Luminosity | Snow |
|---|---|---|---|---|---|---|---|
| 1777752557 | 12.78° C | 70% | 1018.4 hPa | 0 mm | - | 0 W/m² | - |
| 1777751957 | 13.33° C | 69% | 1018.4 hPa | 0 mm | - | 0 W/m² | - |
| 1777751356 | 13.89° C | 68% | 1018.5 hPa | 0 mm | - | 0 W/m² | - |
| 1777750757 | 14.44° C | 68% | 1018.4 hPa | 0 mm | - | 0 W/m² | - |
| 1777750156 | 14.44° C | 67% | 1018.4 hPa | 0 mm | - | 0 W/m² | - |
| 1777749557 | 15° C | 67% | 1018.4 hPa | 0 mm | - | 0 W/m² | - |
| 1777748956 | 15° C | 66% | 1018.3 hPa | 0 mm | - | 0 W/m² | - |
| 1777748357 | 15.56° C | 63% | 1018.3 hPa | 0 mm | - | 0 W/m² | - |
| 1777747756 | 16.11° C | 63% | 1018.2 hPa | 0 mm | - | 0 W/m² | - |
| 1777747156 | 17.22° C | 61% | 1018.1 hPa | 0 mm | - | 0 W/m² | - |
| 1777746557 | 17.78° C | 59% | 1018.1 hPa | 0 mm | - | 0 W/m² | - |
| 1777745957 | 18.33° C | 57% | 1018 hPa | 0 mm | - | 0 W/m² | - |
| 1777745357 | 19.44° C | 54% | 1017.9 hPa | 0 mm | - | 1 W/m² | - |
| 1777744757 | 21.11° C | 51% | 1017.9 hPa | 0 mm | - | 1 W/m² | - |
| 1777744157 | 21.67° C | 47% | 1017.8 hPa | 0 mm | - | 2 W/m² | - |
| 1777743556 | 22.22° C | 43% | 1017.8 hPa | 0 mm | - | 3 W/m² | - |
| 1777742956 | 23.33° C | 38% | 1017.9 hPa | 0 mm | - | 3 W/m² | - |
| 1777742357 | 24.44° C | 36% | 1018 hPa | 0 mm | - | 4 W/m² | - |
| 1777741757 | 24.44° C | 36% | 1018.1 hPa | 0 mm | - | 18 W/m² | - |
| 1777741157 | 24.44° C | 35% | 1018.2 hPa | 0 mm | - | 20 W/m² | - |
| 1777740557 | 25° C | 36% | 1018.2 hPa | 0 mm | - | 23 W/m² | - |
| 1777739957 | 25° C | 35% | 1018.3 hPa | 0 mm | - | 25 W/m² | - |
| 1777739357 | 24.44° C | 36% | 1018.4 hPa | 0 mm | - | 26 W/m² | - |
| 1777738757 | 24.44° C | 35% | 1018.6 hPa | 0 mm | - | 25 W/m² | - |
| 1777738157 | 25.56° C | 33% | 1018.7 hPa | 0 mm | - | 8 W/m² | - |
* Rain latest hour (hover to see other rain measurements)
** Current wind speed in m/s (hover to see current wind gust speed)